createdAt,value
2022-09-06T00:02:25.426Z,7.40
2022-09-06T00:04:52.581Z,4.13
2022-09-06T00:07:19.316Z,8.18
2022-09-06T00:09:46.497Z,5.43
2022-09-06T00:12:13.672Z,4.57
2022-09-06T00:14:40.956Z,5.95
2022-09-06T00:17:08.128Z,10.13
2022-09-06T00:19:34.885Z,8.30
2022-09-06T00:22:01.933Z,6.20
2022-09-06T00:24:29.070Z,6.68
2022-09-06T00:26:55.826Z,11.70
2022-09-06T00:29:22.639Z,4.45
2022-09-06T00:31:49.362Z,6.05
2022-09-06T00:34:16.191Z,5.75
2022-09-06T00:36:43.406Z,5.32
2022-09-06T00:39:10.187Z,8.63
2022-09-06T00:41:37.408Z,5.63
2022-09-06T00:44:04.422Z,5.38
2022-09-06T00:46:33.720Z,7.03
2022-09-06T00:49:26.409Z,5.45
2022-09-06T00:52:00.232Z,4.68
2022-09-06T00:54:28.037Z,6.70
2022-09-06T00:56:55.570Z,5.05
2022-09-06T00:59:24.479Z,4.95
2022-09-06T01:01:52.395Z,6.85
2022-09-06T01:04:19.540Z,5.93
2022-09-06T01:07:08.876Z,4.90
2022-09-06T01:09:50.633Z,5.93
2022-09-06T01:12:55.988Z,4.65
2022-09-06T01:15:35.134Z,8.60
2022-09-06T01:18:13.120Z,7.05
2022-09-06T01:21:02.967Z,6.30
2022-09-06T01:24:07.339Z,8.15
2022-09-06T01:27:19.360Z,6.38
2022-09-06T01:29:52.998Z,4.30
2022-09-06T01:32:31.786Z,6.47
2022-09-06T01:35:16.558Z,6.00
2022-09-06T01:37:43.851Z,4.78
2022-09-06T01:40:11.319Z,5.85
2022-09-06T01:42:39.362Z,4.93
2022-09-06T01:45:11.161Z,5.07
2022-09-06T01:48:06.745Z,7.97
2022-09-06T01:50:36.311Z,4.72
2022-09-06T01:53:36.211Z,6.85
2022-09-06T01:56:34.157Z,5.22
2022-09-06T01:59:20.124Z,7.03
2022-09-06T02:01:57.151Z,7.28
2022-09-06T02:04:27.756Z,5.35
2022-09-06T02:07:00.169Z,5.75
2022-09-06T02:09:33.653Z,8.05
2022-09-06T02:12:04.213Z,5.07
2022-09-06T02:14:40.792Z,7.25
2022-09-06T02:17:11.903Z,4.97
2022-09-06T02:20:07.534Z,8.27
2022-09-06T02:22:39.937Z,4.90
2022-09-06T02:25:10.661Z,8.00
2022-09-06T02:27:38.133Z,7.32
2022-09-06T02:30:06.421Z,5.05
2022-09-06T02:32:38.113Z,6.10
2022-09-06T02:35:12.898Z,6.00
2022-09-06T02:37:40.905Z,6.40
2022-09-06T02:40:09.019Z,5.22
2022-09-06T02:42:36.193Z,5.57
2022-09-06T02:45:03.162Z,5.10
2022-09-06T02:47:30.312Z,7.75
2022-09-06T02:49:57.034Z,6.03
2022-09-06T02:52:23.797Z,4.88
2022-09-06T02:54:50.510Z,6.85
2022-09-06T02:57:17.229Z,6.47
2022-09-06T02:59:44.039Z,4.32
2022-09-06T03:02:10.827Z,5.45
2022-09-06T03:04:37.699Z,6.18
2022-09-06T03:07:04.493Z,6.55
2022-09-06T03:09:31.266Z,8.18
2022-09-06T03:11:58.513Z,8.77
2022-09-06T03:14:25.652Z,5.22
2022-09-06T03:16:53.020Z,6.95
2022-09-06T03:19:20.217Z,6.85
2022-09-06T03:21:47.043Z,5.35
2022-09-06T03:24:14.304Z,6.43
2022-09-06T03:26:41.054Z,5.22
2022-09-06T03:29:08.071Z,7.45
2022-09-06T03:31:34.808Z,4.78
2022-09-06T03:34:01.961Z,10.52
2022-09-06T03:36:29.766Z,5.85
2022-09-06T03:38:56.522Z,8.57
2022-09-06T03:41:23.636Z,6.57
2022-09-06T03:43:50.539Z,6.40
2022-09-06T03:46:17.767Z,6.85
2022-09-06T03:48:45.155Z,7.20
2022-09-06T03:51:11.880Z,5.43
2022-09-06T03:53:38.635Z,5.15
2022-09-06T03:56:06.071Z,6.60
2022-09-06T03:58:33.497Z,5.93
2022-09-06T04:01:11.743Z,6.35
2022-09-06T04:03:39.621Z,5.55
2022-09-06T04:06:07.624Z,10.60
2022-09-06T04:08:35.471Z,6.13
2022-09-06T04:11:02.731Z,7.75
2022-09-06T04:13:30.671Z,5.53
2022-09-06T04:15:58.094Z,7.60
2022-09-06T04:18:25.398Z,7.03
2022-09-06T04:20:54.465Z,6.43
2022-09-06T04:23:22.144Z,7.30
2022-09-06T04:25:52.010Z,5.70
2022-09-06T04:28:19.680Z,6.38
2022-09-06T04:30:53.121Z,13.73
2022-09-06T04:33:20.610Z,10.75
2022-09-06T04:35:50.564Z,11.80
2022-09-06T04:38:17.309Z,7.75
2022-09-06T04:40:44.448Z,6.28
2022-09-06T04:43:11.378Z,7.35
2022-09-06T04:45:38.434Z,9.75
2022-09-06T04:48:05.244Z,6.07
2022-09-06T04:50:32.157Z,11.60
2022-09-06T04:52:58.916Z,7.57
2022-09-06T04:55:26.503Z,11.02
2022-09-06T04:57:53.580Z,8.07
2022-09-06T05:00:20.415Z,12.27
2022-09-06T05:02:47.132Z,12.43
2022-09-06T05:05:14.142Z,13.18
2022-09-06T05:07:40.955Z,11.07
2022-09-06T05:10:08.022Z,9.90
2022-09-06T05:12:35.112Z,9.77
2022-09-06T05:15:02.270Z,7.07
2022-09-06T05:17:29.020Z,9.90
2022-09-06T05:19:55.805Z,14.25
2022-09-06T05:22:22.663Z,10.45
2022-09-06T05:24:49.568Z,10.15
2022-09-06T05:27:16.408Z,11.20
2022-09-06T05:29:43.166Z,9.18
2022-09-06T05:32:10.041Z,14.45
2022-09-06T05:34:36.904Z,19.00
2022-09-06T05:37:04.323Z,8.98
2022-09-06T05:39:31.663Z,15.05
2022-09-06T05:41:58.845Z,10.63
2022-09-06T05:44:25.638Z,10.02
2022-09-06T05:46:53.627Z,9.35
2022-09-06T05:49:20.779Z,14.80
2022-09-06T05:51:51.848Z,15.32
2022-09-06T05:54:18.658Z,8.90
2022-09-06T05:56:45.449Z,8.57
2022-09-06T05:59:12.247Z,15.43
2022-09-06T06:01:53.760Z,9.70
2022-09-06T06:04:22.322Z,10.43
2022-09-06T06:06:49.541Z,23.15
2022-09-06T06:09:19.531Z,8.10
2022-09-06T06:11:46.295Z,19.92
2022-09-06T06:14:13.627Z,16.50
2022-09-06T06:16:40.836Z,14.50
2022-09-06T06:19:08.142Z,11.52
2022-09-06T06:21:35.207Z,12.98
2022-09-06T06:24:04.231Z,9.55
2022-09-06T06:26:34.313Z,17.25
2022-09-06T06:29:05.730Z,15.70
2022-09-06T06:31:33.446Z,20.85
2022-09-06T06:34:03.667Z,15.15
2022-09-06T06:36:33.749Z,10.05
2022-09-06T06:39:03.845Z,19.88
2022-09-06T06:41:32.777Z,17.60
2022-09-06T06:44:03.123Z,11.65
2022-09-06T06:46:32.642Z,12.85
2022-09-06T06:49:00.028Z,11.30
2022-09-06T06:51:30.159Z,19.63
2022-09-06T06:53:57.604Z,12.77
2022-09-06T06:56:35.477Z,15.90
2022-09-06T06:59:04.869Z,8.07
2022-09-06T07:01:32.897Z,10.27
2022-09-06T07:04:00.579Z,6.78
2022-09-06T07:09:16.408Z,11.10
2022-09-06T07:11:43.739Z,9.20
2022-09-06T07:14:10.513Z,11.68
2022-09-06T07:16:37.808Z,10.48
2022-09-06T07:19:04.771Z,10.27
2022-09-06T07:21:39.184Z,9.10
2022-09-06T07:24:10.229Z,10.30
2022-09-06T07:26:39.533Z,6.13
2022-09-06T07:29:08.258Z,8.68
2022-09-06T07:34:25.788Z,7.28
2022-09-06T07:36:53.958Z,11.25
2022-09-06T07:39:20.974Z,6.70
2022-09-06T07:41:48.431Z,7.47
2022-09-06T07:44:15.795Z,14.30
2022-09-06T07:46:43.048Z,9.50
2022-09-06T07:49:09.918Z,6.63
2022-09-06T07:51:36.873Z,9.13
2022-09-06T07:54:29.373Z,6.75
2022-09-06T07:56:51.671Z,8.07
2022-09-06T07:59:18.475Z,9.90
2022-09-06T08:01:47.570Z,6.28
2022-09-06T08:04:15.111Z,8.95
2022-09-06T08:09:35.159Z,5.00
2022-09-06T08:12:06.749Z,5.18
2022-09-06T08:14:34.373Z,6.85
2022-09-06T08:17:01.585Z,6.40
2022-09-06T08:19:28.740Z,7.93
2022-09-06T08:21:56.130Z,9.23
2022-09-06T08:24:22.980Z,5.97
2022-09-06T08:26:50.296Z,4.97
2022-09-06T08:29:17.296Z,5.40
2022-09-06T08:31:45.200Z,10.82
2022-09-06T08:34:14.242Z,5.35
2022-09-06T08:36:42.053Z,8.52
2022-09-06T08:39:10.244Z,3.97
2022-09-06T08:41:42.804Z,7.38
2022-09-06T08:47:14.643Z,6.80
2022-09-06T08:49:54.796Z,7.85
2022-09-06T08:52:33.426Z,6.93
2022-09-06T08:55:06.988Z,4.28
2022-09-06T08:58:01.067Z,3.70
2022-09-06T09:00:27.967Z,9.25
2022-09-06T09:03:14.497Z,5.03
2022-09-06T09:05:47.114Z,5.40
2022-09-06T09:08:19.836Z,6.35
2022-09-06T09:10:50.231Z,8.45
2022-09-06T09:13:35.059Z,5.65
2022-09-06T09:16:02.571Z,7.95
2022-09-06T09:18:37.262Z,8.02
2022-09-06T09:21:04.257Z,8.63
2022-09-06T09:23:31.573Z,9.90
2022-09-06T09:26:11.459Z,9.18
2022-09-06T09:28:38.845Z,8.57
2022-09-06T09:31:07.317Z,7.85
2022-09-06T09:33:39.046Z,5.70
2022-09-06T09:36:09.818Z,5.85
2022-09-06T09:38:49.296Z,5.53
2022-09-06T09:41:33.002Z,6.22
2022-09-06T09:44:17.222Z,11.75
2022-09-06T09:46:44.223Z,4.47
2022-09-06T09:49:40.661Z,8.45
2022-09-06T09:52:12.384Z,5.03
2022-09-06T09:54:43.693Z,5.35
2022-09-06T09:57:14.557Z,6.03
2022-09-06T09:59:52.250Z,4.85
2022-09-06T10:02:35.696Z,4.30
2022-09-06T10:05:13.570Z,5.90
2022-09-06T10:07:49.868Z,4.05
2022-09-06T10:10:25.309Z,3.53
2022-09-06T10:13:26.562Z,5.40
2022-09-06T10:15:54.379Z,4.57
2022-09-06T10:18:30.832Z,6.55
2022-09-06T10:20:59.436Z,6.85
2022-09-06T10:27:01.063Z,6.80
2022-09-06T10:29:47.919Z,3.78
2022-09-06T10:32:31.055Z,3.17
2022-09-06T10:35:10.920Z,6.03
2022-09-06T10:38:15.348Z,4.45
2022-09-06T10:41:13.198Z,6.38
2022-09-06T10:44:08.665Z,3.97
2022-09-06T10:46:37.115Z,5.03
2022-09-06T10:49:05.524Z,3.67
2022-09-06T10:51:52.528Z,4.93
2022-09-06T10:54:23.610Z,5.10
2022-09-06T10:56:53.793Z,3.80
2022-09-06T11:02:16.685Z,5.03
2022-09-06T11:10:31.739Z,3.15
2022-09-06T11:13:12.410Z,5.10
2022-09-06T11:15:51.114Z,4.20
2022-09-06T11:18:46.638Z,1.80
2022-09-06T11:21:45.666Z,2.95
2022-09-06T11:24:50.959Z,2.85
2022-09-06T11:27:28.519Z,3.55
2022-09-06T11:29:56.672Z,3.75
2022-09-06T11:32:38.558Z,1.50
2022-09-06T11:35:20.470Z,2.47
2022-09-06T11:37:51.581Z,2.40
2022-09-06T11:40:28.817Z,0.70
2022-09-06T11:42:55.959Z,2.22
2022-09-06T11:45:41.409Z,1.20
2022-09-06T11:48:26.660Z,1.92
2022-09-06T11:50:53.527Z,1.75
2022-09-06T11:53:22.060Z,4.35
2022-09-06T11:56:11.770Z,1.10
2022-09-06T11:58:41.583Z,2.00
2022-09-06T12:01:18.812Z,1.52
2022-09-06T12:04:06.027Z,2.42
2022-09-06T12:06:43.792Z,1.60
2022-09-06T12:09:30.781Z,1.10
2022-09-06T12:11:58.883Z,1.58
2022-09-06T12:14:35.783Z,2.25
2022-09-06T12:17:05.075Z,2.50
2022-09-06T12:19:55.005Z,5.00
2022-09-06T12:22:27.993Z,1.45
2022-09-06T12:25:01.162Z,1.65
2022-09-06T12:27:53.611Z,0.98
2022-09-06T12:30:42.787Z,1.40
2022-09-06T12:33:33.497Z,1.75
2022-09-06T12:36:33.357Z,3.60
2022-09-06T12:39:04.716Z,3.50
2022-09-06T12:41:43.445Z,1.27
2022-09-06T12:44:13.219Z,1.33
2022-09-06T12:46:47.793Z,3.67
2022-09-06T12:49:17.760Z,1.48
2022-09-06T12:51:44.589Z,1.98
2022-09-06T12:54:22.033Z,1.85
2022-09-06T12:56:49.410Z,0.93
2022-09-06T12:59:22.032Z,2.45
2022-09-06T13:02:14.079Z,1.10
2022-09-06T13:04:47.276Z,1.33
2022-09-06T13:07:17.596Z,2.70
2022-09-06T13:09:52.016Z,3.67
2022-09-06T13:12:29.717Z,1.20
2022-09-06T13:15:01.512Z,1.10
2022-09-06T13:17:30.240Z,4.82
2022-09-06T13:19:58.201Z,3.13
2022-09-06T13:22:41.683Z,2.35
2022-09-06T13:25:28.865Z,3.67
2022-09-06T13:28:01.440Z,1.02
2022-09-06T13:30:49.009Z,2.95
2022-09-06T13:33:26.075Z,1.67
2022-09-06T13:36:16.619Z,0.80
2022-09-06T13:38:45.180Z,2.15
2022-09-06T13:41:27.082Z,1.15
2022-09-06T13:44:11.568Z,3.33
2022-09-06T13:46:38.395Z,0.73
2022-09-06T13:49:06.169Z,1.30
2022-09-06T13:51:34.414Z,1.95
2022-09-06T13:54:04.709Z,1.40
2022-09-06T13:56:32.072Z,2.47
2022-09-06T13:58:58.945Z,0.85
2022-09-06T14:01:25.815Z,1.17
2022-09-06T14:03:53.236Z,3.42
2022-09-06T14:06:20.530Z,3.08
2022-09-06T14:09:06.237Z,3.40
2022-09-06T14:11:33.526Z,2.17
2022-09-06T14:14:00.809Z,0.90
2022-09-06T14:16:27.649Z,3.67
2022-09-06T14:18:54.403Z,3.15
2022-09-06T14:21:21.301Z,0.90
2022-09-06T14:23:52.664Z,1.00
2022-09-06T14:26:21.149Z,0.85
2022-09-06T14:28:48.469Z,2.35
2022-09-06T14:31:21.843Z,2.08
2022-09-06T14:33:49.273Z,1.70
2022-09-06T14:36:19.569Z,3.17
2022-09-06T14:38:47.908Z,1.88
2022-09-06T14:41:16.118Z,1.95
2022-09-06T14:43:44.230Z,1.70
2022-09-06T14:46:15.662Z,2.53
2022-09-06T14:48:43.661Z,2.83
2022-09-06T14:51:22.010Z,1.60
2022-09-06T14:53:52.062Z,1.88
2022-09-06T14:56:19.701Z,1.20
2022-09-06T14:58:47.187Z,1.88
2022-09-06T15:01:24.391Z,2.28
2022-09-06T15:03:55.690Z,1.25
2022-09-06T15:06:24.128Z,3.58
2022-09-06T15:08:52.858Z,1.90
2022-09-06T15:11:34.815Z,1.35
2022-09-06T15:14:07.974Z,1.92
2022-09-06T15:16:36.031Z,1.67
2022-09-06T15:19:02.922Z,1.10
2022-09-06T15:21:29.921Z,1.63
2022-09-06T15:23:57.052Z,1.73
2022-09-06T15:26:24.435Z,1.80
2022-09-06T15:28:51.969Z,1.52
2022-09-06T15:31:19.682Z,2.75
2022-09-06T15:33:48.852Z,3.25
2022-09-06T15:36:16.337Z,2.50
2022-09-06T15:38:45.767Z,2.08
2022-09-06T15:41:15.517Z,6.00
2022-09-06T15:43:46.900Z,1.95
2022-09-06T15:46:21.215Z,1.52
2022-09-06T15:48:50.099Z,1.90
2022-09-06T15:51:19.263Z,1.10
2022-09-06T15:53:47.016Z,2.25
2022-09-06T15:56:15.876Z,2.95
2022-09-06T15:58:43.486Z,2.63
2022-09-06T16:01:19.142Z,4.13
2022-09-06T16:03:48.953Z,1.67
2022-09-06T16:06:26.749Z,2.13
2022-09-06T16:09:00.333Z,3.63
2022-09-06T16:11:28.296Z,3.50
2022-09-06T16:13:55.567Z,3.00
2022-09-06T16:16:22.826Z,1.77
2022-09-06T16:18:49.764Z,3.20
2022-09-06T16:21:19.764Z,2.38
2022-09-06T16:23:55.870Z,2.13
2022-09-06T16:26:24.484Z,2.88
2022-09-06T16:28:52.595Z,2.15
2022-09-06T16:31:21.763Z,2.38
2022-09-06T16:33:49.895Z,4.07
2022-09-06T16:36:18.685Z,3.03
2022-09-06T16:38:46.257Z,3.70
2022-09-06T16:41:22.299Z,2.78
2022-09-06T16:43:49.838Z,3.70
2022-09-06T16:46:17.483Z,3.80
2022-09-06T16:48:50.479Z,4.05
2022-09-06T16:51:19.553Z,3.13
2022-09-06T16:53:47.694Z,4.10
2022-09-06T16:56:18.220Z,4.97
2022-09-06T16:58:51.269Z,5.40
2022-09-06T17:01:18.277Z,4.60
2022-09-06T17:03:45.208Z,13.35
2022-09-06T17:06:13.088Z,5.47
2022-09-06T17:08:40.269Z,11.35
2022-09-06T17:11:12.302Z,8.73
2022-09-06T17:13:39.067Z,7.10
2022-09-06T17:16:24.955Z,6.90
2022-09-06T17:18:53.636Z,12.45
2022-09-06T17:21:22.800Z,5.03
2022-09-06T17:23:50.826Z,3.67
2022-09-06T17:26:22.121Z,5.28
2022-09-06T17:28:50.032Z,4.95
2022-09-06T17:31:22.251Z,5.18
2022-09-06T17:33:52.800Z,6.78
2022-09-06T17:36:25.883Z,6.00
2022-09-06T17:38:59.000Z,7.07
2022-09-06T17:41:28.289Z,4.57
2022-09-06T17:43:55.618Z,7.57
2022-09-06T17:46:28.411Z,16.50
2022-09-06T17:48:56.659Z,7.15
2022-09-06T17:51:24.692Z,8.48
2022-09-06T17:53:52.799Z,10.90
2022-09-06T17:56:20.939Z,11.15
2022-09-06T17:59:02.030Z,12.55
2022-09-06T18:01:31.769Z,7.05
2022-09-06T18:03:59.825Z,9.48
2022-09-06T18:06:28.469Z,6.60
2022-09-06T18:08:57.501Z,6.05
2022-09-06T18:11:27.700Z,5.80
2022-09-06T18:13:59.877Z,8.90
2022-09-06T18:16:28.849Z,8.23
2022-09-06T18:19:00.090Z,6.88
2022-09-06T18:21:29.171Z,8.75
2022-09-06T18:23:56.705Z,6.25
2022-09-06T18:26:24.806Z,7.93
2022-09-06T18:28:55.618Z,13.63
2022-09-06T18:31:25.731Z,12.90
2022-09-06T18:33:54.286Z,8.50
2022-09-06T18:36:21.308Z,9.90
2022-09-06T18:38:48.463Z,8.43
2022-09-06T18:41:35.086Z,9.18
2022-09-06T18:44:04.567Z,6.70
2022-09-06T18:46:33.375Z,8.80
2022-09-06T18:49:01.124Z,10.02
2022-09-06T18:51:29.043Z,8.13
2022-09-06T18:53:57.808Z,9.52
2022-09-06T18:56:25.472Z,8.55
2022-09-06T18:58:58.882Z,7.18
2022-09-06T19:01:28.592Z,7.80
2022-09-06T19:04:00.080Z,7.18
2022-09-06T19:06:29.299Z,8.00
2022-09-06T19:09:04.609Z,10.20
2022-09-06T19:11:32.126Z,9.40
2022-09-06T19:13:59.699Z,7.40
2022-09-06T19:16:29.243Z,9.10
2022-09-06T19:18:57.079Z,11.95
2022-09-06T19:21:25.715Z,8.73
2022-09-06T19:23:59.046Z,8.55
2022-09-06T19:26:28.900Z,8.10
2022-09-06T19:28:58.791Z,10.80
2022-09-06T19:31:29.028Z,10.13
2022-09-06T19:33:56.763Z,9.82
2022-09-06T19:36:26.137Z,6.15
2022-09-06T19:39:04.432Z,8.38
2022-09-06T19:41:34.327Z,7.88
2022-09-06T19:44:04.114Z,10.18
2022-09-06T19:46:32.026Z,9.98
2022-09-06T19:49:00.393Z,8.05
2022-09-06T19:51:27.290Z,12.90
2022-09-06T19:53:59.939Z,8.40
2022-09-06T19:56:33.548Z,6.00
2022-09-06T19:59:06.159Z,8.80
2022-09-06T20:01:35.292Z,7.75
2022-09-06T20:04:04.350Z,5.57
2022-09-06T20:06:31.599Z,11.25
2022-09-06T20:09:00.204Z,5.90
2022-09-06T20:11:29.962Z,6.50
2022-09-06T20:13:56.946Z,6.88
2022-09-06T20:16:27.662Z,12.80
2022-09-06T20:18:55.246Z,9.48
2022-09-06T20:21:22.451Z,13.40
2022-09-06T20:23:51.058Z,8.63
2022-09-06T20:26:18.807Z,14.35
2022-09-06T20:28:46.103Z,12.75
2022-09-06T20:31:18.201Z,11.48
2022-09-06T20:33:49.512Z,9.70
2022-09-06T20:36:18.212Z,8.90
2022-09-06T20:38:46.332Z,7.68
2022-09-06T20:41:22.850Z,11.52
2022-09-06T20:43:58.637Z,7.20
2022-09-06T20:46:28.414Z,8.13
2022-09-06T20:48:57.891Z,12.70
2022-09-06T20:51:25.540Z,10.52
2022-09-06T20:53:57.250Z,9.32
2022-09-06T20:56:26.536Z,5.82
2022-09-06T20:59:00.617Z,6.22
2022-09-06T21:01:30.261Z,6.10
2022-09-06T21:03:59.349Z,6.57
2022-09-06T21:06:28.049Z,7.03
2022-09-06T21:08:56.367Z,9.05
2022-09-06T21:11:23.740Z,8.13
2022-09-06T21:13:54.166Z,6.90
2022-09-06T21:16:24.672Z,7.13
2022-09-06T21:18:53.933Z,6.18
2022-09-06T21:21:22.311Z,5.78
2022-09-06T21:23:49.121Z,6.63
2022-09-06T21:26:15.984Z,9.07
2022-09-06T21:28:43.521Z,7.75
2022-09-06T21:31:15.940Z,5.60
2022-09-06T21:33:46.294Z,5.20
2022-09-06T21:36:15.055Z,5.30
2022-09-06T21:38:45.317Z,5.38
2022-09-06T21:41:13.713Z,6.18
2022-09-06T21:43:41.559Z,9.48
2022-09-06T21:46:15.864Z,4.50
2022-09-06T21:48:45.494Z,5.03
2022-09-06T21:51:14.762Z,4.88
2022-09-06T21:53:43.634Z,7.75
2022-09-06T21:56:10.563Z,4.50
2022-09-06T21:58:37.488Z,7.03
2022-09-06T22:01:05.269Z,4.10
2022-09-06T22:03:40.218Z,4.45
2022-09-06T22:06:12.763Z,8.57
2022-09-06T22:08:43.243Z,5.03
2022-09-06T22:11:22.081Z,7.28
2022-09-06T22:13:49.987Z,9.90
2022-09-06T22:16:18.764Z,10.25
2022-09-06T22:18:46.482Z,5.13
2022-09-06T22:21:18.487Z,5.40
2022-09-06T22:23:52.842Z,7.63
2022-09-06T22:26:20.658Z,6.03
2022-09-06T22:28:47.937Z,9.63
2022-09-06T22:31:14.951Z,8.50
2022-09-06T22:33:41.770Z,9.13
2022-09-06T22:36:10.306Z,6.38
2022-09-06T22:38:37.544Z,6.22
2022-09-06T22:41:05.101Z,8.25
2022-09-06T22:43:32.101Z,8.00
2022-09-06T22:46:06.635Z,8.75
2022-09-06T22:48:34.438Z,10.77
2022-09-06T22:51:02.563Z,10.55
2022-09-06T22:53:31.107Z,7.32
2022-09-06T22:55:58.869Z,8.07
2022-09-06T22:58:29.068Z,7.57
2022-09-06T23:00:56.315Z,6.10
2022-09-06T23:03:23.460Z,11.95
2022-09-06T23:05:50.225Z,7.43
2022-09-06T23:08:17.424Z,10.38
2022-09-06T23:10:44.544Z,5.70
2022-09-06T23:13:11.964Z,6.53
2022-09-06T23:15:43.832Z,6.38
2022-09-06T23:18:11.105Z,8.70
2022-09-06T23:20:38.044Z,6.35
2022-09-06T23:23:05.416Z,9.00
2022-09-06T23:25:32.198Z,8.40
2022-09-06T23:28:00.215Z,6.72
2022-09-06T23:30:27.044Z,7.28
2022-09-06T23:32:56.306Z,6.93
2022-09-06T23:35:23.899Z,7.93
2022-09-06T23:37:51.345Z,6.88
2022-09-06T23:40:18.986Z,8.23
2022-09-06T23:42:46.810Z,7.82
2022-09-06T23:45:13.818Z,9.57
2022-09-06T23:47:41.141Z,8.18
2022-09-06T23:50:09.005Z,5.45
2022-09-06T23:52:36.219Z,6.07
2022-09-06T23:55:03.459Z,10.40
2022-09-06T23:57:30.255Z,7.85
2022-09-06T23:59:57.004Z,7.28
